sensor_id;sensor_type;location;lat;lon;timestamp;pressure;altitude;pressure_sealevel;temperature;humidity
79544;BME280;68994;47.176;7.534;2023-08-20T00:00:40;96352.41;;;20.81;72.26
79544;BME280;68994;47.176;7.534;2023-08-20T00:03:11;96351.16;;;20.78;72.46
79544;BME280;68994;47.176;7.534;2023-08-20T00:05:39;96342.66;;;20.71;71.62
79544;BME280;68994;47.176;7.534;2023-08-20T00:08:06;96341.22;;;20.73;71.92
79544;BME280;68994;47.176;7.534;2023-08-20T00:10:32;96346.66;;;20.73;72.48
79544;BME280;68994;47.176;7.534;2023-08-20T00:12:59;96341.06;;;20.70;72.84
79544;BME280;68994;47.176;7.534;2023-08-20T00:15:26;96344.25;;;20.72;72.23
79544;BME280;68994;47.176;7.534;2023-08-20T00:17:55;96342.66;;;20.71;72.14
79544;BME280;68994;47.176;7.534;2023-08-20T00:20:22;96343.47;;;20.71;73.02
79544;BME280;68994;47.176;7.534;2023-08-20T00:22:50;96348.69;;;20.68;72.24
79544;BME280;68994;47.176;7.534;2023-08-20T00:25:17;96339.72;;;20.58;72.59
79544;BME280;68994;47.176;7.534;2023-08-20T00:27:44;96337.94;;;20.54;72.88
79544;BME280;68994;47.176;7.534;2023-08-20T00:30:11;96343.19;;;20.50;73.41
79544;BME280;68994;47.176;7.534;2023-08-20T00:32:39;96344.44;;;20.44;73.73
79544;BME280;68994;47.176;7.534;2023-08-20T00:35:08;96348.09;;;20.39;74.04
79544;BME280;68994;47.176;7.534;2023-08-20T00:37:34;96343.13;;;20.33;73.75
79544;BME280;68994;47.176;7.534;2023-08-20T00:40:01;96350.13;;;20.34;74.17
79544;BME280;68994;47.176;7.534;2023-08-20T00:42:30;96352.50;;;20.27;75.23
79544;BME280;68994;47.176;7.534;2023-08-20T00:44:57;96350.72;;;20.22;75.03
79544;BME280;68994;47.176;7.534;2023-08-20T00:47:23;96354.84;;;20.19;74.92
79544;BME280;68994;47.176;7.534;2023-08-20T00:49:51;96346.03;;;20.14;74.97
79544;BME280;68994;47.176;7.534;2023-08-20T00:52:20;96352.91;;;20.11;75.06
79544;BME280;68994;47.176;7.534;2023-08-20T00:54:48;96351.13;;;20.07;74.80
79544;BME280;68994;47.176;7.534;2023-08-20T00:57:15;96352.72;;;20.08;75.44
79544;BME280;68994;47.176;7.534;2023-08-20T00:59:44;96350.31;;;20.06;75.29
79544;BME280;68994;47.176;7.534;2023-08-20T01:02:13;96357.63;;;20.06;75.20
79544;BME280;68994;47.176;7.534;2023-08-20T01:04:39;96357.94;;;20.04;74.93
79544;BME280;68994;47.176;7.534;2023-08-20T01:07:13;96362.56;;;20.04;75.51
79544;BME280;68994;47.176;7.534;2023-08-20T01:09:50;96359.19;;;19.98;76.09
79544;BME280;68994;47.176;7.534;2023-08-20T01:12:17;96363.47;;;19.99;75.42
79544;BME280;68994;47.176;7.534;2023-08-20T01:14:45;96370.50;;;20.00;74.98
79544;BME280;68994;47.176;7.534;2023-08-20T01:17:12;96369.19;;;19.97;75.61
79544;BME280;68994;47.176;7.534;2023-08-20T01:19:39;96372.03;;;19.92;75.78
79544;BME280;68994;47.176;7.534;2023-08-20T01:22:18;96367.44;;;19.93;75.58
79544;BME280;68994;47.176;7.534;2023-08-20T01:24:56;96376.97;;;19.90;76.20
79544;BME280;68994;47.176;7.534;2023-08-20T01:27:38;96371.69;;;19.85;76.00
79544;BME280;68994;47.176;7.534;2023-08-20T01:30:09;96371.69;;;19.85;75.88
79544;BME280;68994;47.176;7.534;2023-08-20T01:32:37;96367.69;;;19.82;75.37
79544;BME280;68994;47.176;7.534;2023-08-20T01:35:07;96377.88;;;19.86;75.65
79544;BME280;68994;47.176;7.534;2023-08-20T01:37:35;96380.72;;;19.80;75.89
79544;BME280;68994;47.176;7.534;2023-08-20T01:40:02;96390.06;;;19.74;75.95
79544;BME280;68994;47.176;7.534;2023-08-20T01:42:29;96387.16;;;19.71;75.89
79544;BME280;68994;47.176;7.534;2023-08-20T01:44:56;96390.78;;;19.66;76.10
79544;BME280;68994;47.176;7.534;2023-08-20T01:47:24;96396.81;;;19.63;76.83
79544;BME280;68994;47.176;7.534;2023-08-20T01:49:51;96392.00;;;19.60;76.96
79544;BME280;68994;47.176;7.534;2023-08-20T01:52:18;96394.84;;;19.55;77.41
79544;BME280;68994;47.176;7.534;2023-08-20T01:54:44;96397.06;;;19.53;77.11
79544;BME280;68994;47.176;7.534;2023-08-20T01:57:11;96385.09;;;19.54;77.16
79544;BME280;68994;47.176;7.534;2023-08-20T01:59:38;96390.91;;;19.61;76.28
79544;BME280;68994;47.176;7.534;2023-08-20T02:02:04;96390.41;;;19.59;76.55
79544;BME280;68994;47.176;7.534;2023-08-20T02:04:32;96385.22;;;19.49;76.96
79544;BME280;68994;47.176;7.534;2023-08-20T02:06:59;96392.06;;;19.46;77.34
79544;BME280;68994;47.176;7.534;2023-08-20T02:09:26;96403.97;;;19.45;77.60
79544;BME280;68994;47.176;7.534;2023-08-20T02:11:53;96398.38;;;19.41;77.10
79544;BME280;68994;47.176;7.534;2023-08-20T02:14:19;96400.28;;;19.41;76.93
79544;BME280;68994;47.176;7.534;2023-08-20T02:16:47;96402.81;;;19.37;77.52
79544;BME280;68994;47.176;7.534;2023-08-20T02:19:14;96395.28;;;19.34;77.63
79544;BME280;68994;47.176;7.534;2023-08-20T02:21:42;96397.41;;;19.37;77.07
79544;BME280;68994;47.176;7.534;2023-08-20T02:24:10;96401.09;;;19.41;77.45
79544;BME280;68994;47.176;7.534;2023-08-20T02:26:37;96396.88;;;19.35;77.49
79544;BME280;68994;47.176;7.534;2023-08-20T02:29:04;96398.31;;;19.33;78.12
79544;BME280;68994;47.176;7.534;2023-08-20T02:31:31;96400.19;;;19.32;77.13
79544;BME280;68994;47.176;7.534;2023-08-20T02:33:57;96398.59;;;19.31;77.60
79544;BME280;68994;47.176;7.534;2023-08-20T02:36:24;96396.13;;;19.21;77.20
79544;BME280;68994;47.176;7.534;2023-08-20T02:38:52;96405.94;;;19.17;78.29
79544;BME280;68994;47.176;7.534;2023-08-20T02:41:19;96410.34;;;19.13;78.22
79544;BME280;68994;47.176;7.534;2023-08-20T02:43:46;96402.94;;;19.04;78.56
79544;BME280;68994;47.176;7.534;2023-08-20T02:46:12;96407.75;;;19.07;78.10
79544;BME280;68994;47.176;7.534;2023-08-20T02:48:39;96397.66;;;18.99;78.28
79544;BME280;68994;47.176;7.534;2023-08-20T02:51:06;96412.66;;;19.05;78.16
79544;BME280;68994;47.176;7.534;2023-08-20T02:53:32;96404.13;;;18.98;78.06
79544;BME280;68994;47.176;7.534;2023-08-20T02:56:00;96400.16;;;18.96;78.30
79544;BME280;68994;47.176;7.534;2023-08-20T02:58:28;96401.75;;;18.97;78.35
79544;BME280;68994;47.176;7.534;2023-08-20T03:00:55;96407.97;;;18.97;78.76
79544;BME280;68994;47.176;7.534;2023-08-20T03:03:23;96408.56;;;18.94;78.90
79544;BME280;68994;47.176;7.534;2023-08-20T03:05:49;96406.75;;;18.89;79.28
79544;BME280;68994;47.176;7.534;2023-08-20T03:08:16;96413.47;;;18.92;79.00
79544;BME280;68994;47.176;7.534;2023-08-20T03:10:43;96404.72;;;18.81;78.88
79544;BME280;68994;47.176;7.534;2023-08-20T03:13:11;96419.28;;;18.85;79.18
79544;BME280;68994;47.176;7.534;2023-08-20T03:15:37;96426.66;;;18.80;79.24
79544;BME280;68994;47.176;7.534;2023-08-20T03:18:05;96422.13;;;18.75;79.23
79544;BME280;68994;47.176;7.534;2023-08-20T03:20:32;96423.75;;;18.76;79.24
79544;BME280;68994;47.176;7.534;2023-08-20T03:22:59;96424.53;;;18.77;78.50
79544;BME280;68994;47.176;7.534;2023-08-20T03:25:26;96414.56;;;18.91;76.47
79544;BME280;68994;47.176;7.534;2023-08-20T03:27:53;96422.47;;;18.87;77.20
79544;BME280;68994;47.176;7.534;2023-08-20T03:30:21;96413.13;;;18.80;77.98
79544;BME280;68994;47.176;7.534;2023-08-20T03:32:47;96406.31;;;18.68;77.96
79544;BME280;68994;47.176;7.534;2023-08-20T03:35:14;96407.53;;;18.62;78.37
79544;BME280;68994;47.176;7.534;2023-08-20T03:37:41;96412.34;;;18.65;79.25
79544;BME280;68994;47.176;7.534;2023-08-20T03:40:08;96419.81;;;18.68;78.91
79544;BME280;68994;47.176;7.534;2023-08-20T03:42:35;96426.25;;;18.72;77.98
79544;BME280;68994;47.176;7.534;2023-08-20T03:45:02;96419.75;;;18.73;78.08
79544;BME280;68994;47.176;7.534;2023-08-20T03:47:30;96422.66;;;18.77;78.03
79544;BME280;68994;47.176;7.534;2023-08-20T03:49:56;96425.16;;;18.73;78.40
79544;BME280;68994;47.176;7.534;2023-08-20T03:52:23;96421.84;;;18.77;78.19
79544;BME280;68994;47.176;7.534;2023-08-20T03:54:50;96419.28;;;18.85;77.30
79544;BME280;68994;47.176;7.534;2023-08-20T03:57:16;96425.47;;;19.00;75.16
79544;BME280;68994;47.176;7.534;2023-08-20T03:59:43;96423.06;;;18.98;76.17
79544;BME280;68994;47.176;7.534;2023-08-20T04:02:11;96432.41;;;19.06;75.79
79544;BME280;68994;47.176;7.534;2023-08-20T04:04:39;96442.50;;;19.14;74.71
79544;BME280;68994;47.176;7.534;2023-08-20T04:07:06;96441.09;;;19.17;74.58
79544;BME280;68994;47.176;7.534;2023-08-20T04:09:33;96440.09;;;19.13;75.39
79544;BME280;68994;47.176;7.534;2023-08-20T04:12:01;96429.50;;;19.02;75.31
79544;BME280;68994;47.176;7.534;2023-08-20T04:14:28;96444.41;;;19.00;75.29
79544;BME280;68994;47.176;7.534;2023-08-20T04:16:54;96440.81;;;18.90;76.08
79544;BME280;68994;47.176;7.534;2023-08-20T04:19:21;96447.72;;;18.83;76.13
79544;BME280;68994;47.176;7.534;2023-08-20T04:21:49;96439.16;;;18.76;76.76
79544;BME280;68994;47.176;7.534;2023-08-20T04:24:16;96447.38;;;18.70;77.16
79544;BME280;68994;47.176;7.534;2023-08-20T04:26:43;96446.34;;;18.66;77.30
79544;BME280;68994;47.176;7.534;2023-08-20T04:29:10;96450.78;;;18.62;77.40
79544;BME280;68994;47.176;7.534;2023-08-20T04:31:37;96437.94;;;18.54;77.39
79544;BME280;68994;47.176;7.534;2023-08-20T04:34:03;96437.56;;;18.61;78.02
79544;BME280;68994;47.176;7.534;2023-08-20T04:36:30;96445.06;;;18.64;77.82
79544;BME280;68994;47.176;7.534;2023-08-20T04:38:58;96443.56;;;18.71;77.35
79544;BME280;68994;47.176;7.534;2023-08-20T04:41:24;96454.38;;;18.71;77.62
79544;BME280;68994;47.176;7.534;2023-08-20T04:43:51;96452.78;;;18.70;77.24
79544;BME280;68994;47.176;7.534;2023-08-20T04:46:18;96448.97;;;18.71;78.01
79544;BME280;68994;47.176;7.534;2023-08-20T04:48:46;96446.78;;;18.73;77.44
79544;BME280;68994;47.176;7.534;2023-08-20T04:51:12;96455.59;;;18.79;77.12
79544;BME280;68994;47.176;7.534;2023-08-20T04:53:39;96454.47;;;18.80;76.86
79544;BME280;68994;47.176;7.534;2023-08-20T04:56:07;96445.59;;;18.94;74.70
79544;BME280;68994;47.176;7.534;2023-08-20T04:58:34;96438.00;;;18.96;75.42
79544;BME280;68994;47.176;7.534;2023-08-20T05:01:00;96443.72;;;18.94;76.53
79544;BME280;68994;47.176;7.534;2023-08-20T05:03:27;96440.00;;;18.90;75.72
79544;BME280;68994;47.176;7.534;2023-08-20T05:05:54;96450.72;;;18.95;75.48
79544;BME280;68994;47.176;7.534;2023-08-20T05:08:20;96458.94;;;18.90;75.99
79544;BME280;68994;47.176;7.534;2023-08-20T05:10:49;96469.75;;;18.90;76.06
79544;BME280;68994;47.176;7.534;2023-08-20T05:13:17;96474.06;;;18.91;74.23
79544;BME280;68994;47.176;7.534;2023-08-20T05:15:46;96479.75;;;19.03;73.57
79544;BME280;68994;47.176;7.534;2023-08-20T05:18:12;96470.84;;;19.03;73.69
79544;BME280;68994;47.176;7.534;2023-08-20T05:20:39;96471.44;;;19.00;75.38
79544;BME280;68994;47.176;7.534;2023-08-20T05:23:06;96475.47;;;19.02;74.12
79544;BME280;68994;47.176;7.534;2023-08-20T05:25:33;96476.47;;;18.93;75.01
79544;BME280;68994;47.176;7.534;2023-08-20T05:28:00;96469.16;;;18.93;73.61
79544;BME280;68994;47.176;7.534;2023-08-20T05:30:28;96477.25;;;18.93;74.87
79544;BME280;68994;47.176;7.534;2023-08-20T05:32:55;96471.84;;;18.93;76.16
79544;BME280;68994;47.176;7.534;2023-08-20T05:35:21;96473.47;;;18.94;75.68
79544;BME280;68994;47.176;7.534;2023-08-20T05:37:48;96464.22;;;18.95;75.47
79544;BME280;68994;47.176;7.534;2023-08-20T05:40:15;96480.88;;;19.02;76.03
79544;BME280;68994;47.176;7.534;2023-08-20T05:42:42;96483.00;;;19.05;75.97
79544;BME280;68994;47.176;7.534;2023-08-20T05:45:09;96480.09;;;19.16;73.41
79544;BME280;68994;47.176;7.534;2023-08-20T05:47:37;96484.06;;;19.46;71.12
79544;BME280;68994;47.176;7.534;2023-08-20T05:50:04;96479.84;;;19.54;70.37
79544;BME280;68994;47.176;7.534;2023-08-20T05:52:31;96481.03;;;19.61;70.03
79544;BME280;68994;47.176;7.534;2023-08-20T05:54:58;96478.41;;;19.70;69.18
79544;BME280;68994;47.176;7.534;2023-08-20T05:57:24;96481.44;;;19.82;68.97
79544;BME280;68994;47.176;7.534;2023-08-20T05:59:51;96490.66;;;19.81;69.09
79544;BME280;68994;47.176;7.534;2023-08-20T06:02:18;96486.63;;;19.79;69.19
79544;BME280;68994;47.176;7.534;2023-08-20T06:04:46;96491.13;;;19.83;69.27
79544;BME280;68994;47.176;7.534;2023-08-20T06:07:13;96493.63;;;19.94;69.28
79544;BME280;68994;47.176;7.534;2023-08-20T06:09:39;96490.97;;;20.02;69.34
79544;BME280;68994;47.176;7.534;2023-08-20T06:12:06;96501.19;;;20.06;70.48
79544;BME280;68994;47.176;7.534;2023-08-20T06:14:33;96497.47;;;20.15;70.58
79544;BME280;68994;47.176;7.534;2023-08-20T06:17:00;96501.16;;;20.19;70.45
79544;BME280;68994;47.176;7.534;2023-08-20T06:19:27;96496.72;;;20.24;70.49
79544;BME280;68994;47.176;7.534;2023-08-20T06:21:55;96490.69;;;20.27;71.41
79544;BME280;68994;47.176;7.534;2023-08-20T06:24:22;96492.50;;;20.31;71.50
79544;BME280;68994;47.176;7.534;2023-08-20T06:26:49;96501.28;;;20.37;71.81
79544;BME280;68994;47.176;7.534;2023-08-20T06:29:15;96491.41;;;20.41;71.64
79544;BME280;68994;47.176;7.534;2023-08-20T06:31:42;96506.16;;;20.49;71.32
79544;BME280;68994;47.176;7.534;2023-08-20T06:34:09;96498.19;;;20.52;71.23
79544;BME280;68994;47.176;7.534;2023-08-20T06:36:36;96500.78;;;20.57;71.35
79544;BME280;68994;47.176;7.534;2023-08-20T06:39:08;96504.69;;;20.65;71.54
79544;BME280;68994;47.176;7.534;2023-08-20T06:41:36;96510.66;;;20.76;70.88
79544;BME280;68994;47.176;7.534;2023-08-20T06:44:03;96503.84;;;20.87;69.62
79544;BME280;68994;47.176;7.534;2023-08-20T06:46:30;96510.63;;;20.99;66.80
79544;BME280;68994;47.176;7.534;2023-08-20T06:48:56;96499.47;;;21.09;66.11
79544;BME280;68994;47.176;7.534;2023-08-20T06:51:23;96501.78;;;21.24;65.83
79544;BME280;68994;47.176;7.534;2023-08-20T06:53:50;96501.16;;;21.27;65.40
79544;BME280;68994;47.176;7.534;2023-08-20T06:56:18;96499.72;;;21.30;65.73
79544;BME280;68994;47.176;7.534;2023-08-20T06:58:45;96505.03;;;21.44;64.51
79544;BME280;68994;47.176;7.534;2023-08-20T07:01:12;96495.28;;;21.43;65.21
79544;BME280;68994;47.176;7.534;2023-08-20T07:03:40;96499.59;;;21.44;66.35
79544;BME280;68994;47.176;7.534;2023-08-20T07:06:07;96500.44;;;21.53;65.62
79544;BME280;68994;47.176;7.534;2023-08-20T07:08:34;96498.88;;;21.61;64.25
79544;BME280;68994;47.176;7.534;2023-08-20T07:11:01;96508.66;;;21.71;65.55
79544;BME280;68994;47.176;7.534;2023-08-20T07:13:29;96508.66;;;21.79;64.53
79544;BME280;68994;47.176;7.534;2023-08-20T07:15:56;96507.56;;;21.89;64.53
79544;BME280;68994;47.176;7.534;2023-08-20T07:18:23;96505.63;;;21.98;63.82
79544;BME280;68994;47.176;7.534;2023-08-20T07:20:50;96502.78;;;22.12;64.81
79544;BME280;68994;47.176;7.534;2023-08-20T07:23:17;96509.63;;;22.27;64.25
79544;BME280;68994;47.176;7.534;2023-08-20T07:25:43;96497.66;;;22.28;63.51
79544;BME280;68994;47.176;7.534;2023-08-20T07:28:10;96505.00;;;22.45;63.98
79544;BME280;68994;47.176;7.534;2023-08-20T07:30:41;96516.84;;;22.58;63.86
79544;BME280;68994;47.176;7.534;2023-08-20T07:33:08;96515.06;;;22.62;64.21
79544;BME280;68994;47.176;7.534;2023-08-20T07:35:34;96509.94;;;22.69;63.85
79544;BME280;68994;47.176;7.534;2023-08-20T07:38:02;96506.22;;;22.74;63.90
79544;BME280;68994;47.176;7.534;2023-08-20T07:40:28;96512.63;;;22.78;63.77
79544;BME280;68994;47.176;7.534;2023-08-20T07:42:55;96506.88;;;22.79;63.15
79544;BME280;68994;47.176;7.534;2023-08-20T07:45:22;96511.34;;;22.84;63.31
79544;BME280;68994;47.176;7.534;2023-08-20T07:47:50;96508.13;;;22.91;63.10
79544;BME280;68994;47.176;7.534;2023-08-20T07:50:17;96518.97;;;23.00;62.44
79544;BME280;68994;47.176;7.534;2023-08-20T07:52:44;96512.44;;;23.09;64.96
79544;BME280;68994;47.176;7.534;2023-08-20T07:55:11;96513.34;;;23.13;63.15
79544;BME280;68994;47.176;7.534;2023-08-20T07:57:37;96515.44;;;23.17;62.28
79544;BME280;68994;47.176;7.534;2023-08-20T08:00:05;96516.84;;;23.23;62.59
79544;BME280;68994;47.176;7.534;2023-08-20T08:02:31;96518.88;;;23.34;63.37
79544;BME280;68994;47.176;7.534;2023-08-20T08:05:01;96518.38;;;23.41;64.48
79544;BME280;68994;47.176;7.534;2023-08-20T08:07:27;96523.44;;;23.51;63.98
79544;BME280;68994;47.176;7.534;2023-08-20T08:09:54;96525.00;;;23.61;64.89
79544;BME280;68994;47.176;7.534;2023-08-20T08:12:21;96521.75;;;23.68;64.51
79544;BME280;68994;47.176;7.534;2023-08-20T08:14:47;96531.59;;;23.81;64.65
79544;BME280;68994;47.176;7.534;2023-08-20T08:17:14;96501.16;;;23.79;62.64
79544;BME280;68994;47.176;7.534;2023-08-20T08:19:41;96520.88;;;24.06;61.96
79544;BME280;68994;47.176;7.534;2023-08-20T08:22:09;96522.53;;;24.19;61.95
79544;BME280;68994;47.176;7.534;2023-08-20T08:24:35;96525.19;;;24.28;60.75
79544;BME280;68994;47.176;7.534;2023-08-20T08:27:02;96514.91;;;24.34;62.23
79544;BME280;68994;47.176;7.534;2023-08-20T08:29:29;96523.25;;;24.50;61.23
79544;BME280;68994;47.176;7.534;2023-08-20T08:31:56;96518.44;;;24.55;60.61
79544;BME280;68994;47.176;7.534;2023-08-20T08:34:22;96524.97;;;24.75;61.16
79544;BME280;68994;47.176;7.534;2023-08-20T08:36:49;96521.94;;;24.89;59.06
79544;BME280;68994;47.176;7.534;2023-08-20T08:39:17;96525.84;;;25.13;58.09
79544;BME280;68994;47.176;7.534;2023-08-20T08:41:47;96530.69;;;25.41;59.82
79544;BME280;68994;47.176;7.534;2023-08-20T08:44:16;96524.19;;;25.70;57.32
79544;BME280;68994;47.176;7.534;2023-08-20T08:46:43;96525.63;;;25.92;56.87
79544;BME280;68994;47.176;7.534;2023-08-20T08:49:09;96519.72;;;26.02;57.41
79544;BME280;68994;47.176;7.534;2023-08-20T08:51:36;96524.94;;;26.20;56.47
79544;BME280;68994;47.176;7.534;2023-08-20T08:54:03;96525.38;;;26.22;54.60
79544;BME280;68994;47.176;7.534;2023-08-20T08:56:32;96521.75;;;26.46;57.03
79544;BME280;68994;47.176;7.534;2023-08-20T08:58:59;96526.78;;;26.44;53.71
79544;BME280;68994;47.176;7.534;2023-08-20T09:01:26;96522.50;;;26.59;57.64
79544;BME280;68994;47.176;7.534;2023-08-20T09:03:52;96527.63;;;26.89;54.30
79544;BME280;68994;47.176;7.534;2023-08-20T09:06:19;96524.53;;;26.90;54.54
79544;BME280;68994;47.176;7.534;2023-08-20T09:08:46;96516.34;;;27.06;54.07
79544;BME280;68994;47.176;7.534;2023-08-20T09:11:12;96512.91;;;27.25;52.54
79544;BME280;68994;47.176;7.534;2023-08-20T09:13:42;96518.91;;;27.47;53.92
79544;BME280;68994;47.176;7.534;2023-08-20T09:16:09;96513.28;;;27.55;53.32
79544;BME280;68994;47.176;7.534;2023-08-20T09:18:40;96514.50;;;27.58;53.03
79544;BME280;68994;47.176;7.534;2023-08-20T09:21:07;96511.75;;;27.74;54.18
79544;BME280;68994;47.176;7.534;2023-08-20T09:23:34;96515.72;;;27.92;52.70
79544;BME280;68994;47.176;7.534;2023-08-20T09:26:02;96509.53;;;28.35;49.92
79544;BME280;68994;47.176;7.534;2023-08-20T09:28:29;96514.28;;;28.96;46.81
79544;BME280;68994;47.176;7.534;2023-08-20T09:31:07;96512.03;;;29.75;44.70
79544;BME280;68994;47.176;7.534;2023-08-20T09:33:34;96508.34;;;31.22;43.36
79544;BME280;68994;47.176;7.534;2023-08-20T09:36:03;96501.50;;;33.40;38.01
79544;BME280;68994;47.176;7.534;2023-08-20T09:38:30;96503.75;;;35.09;34.11
79544;BME280;68994;47.176;7.534;2023-08-20T09:41:03;96501.97;;;36.24;30.83
79544;BME280;68994;47.176;7.534;2023-08-20T09:43:30;96509.34;;;37.27;30.57
79544;BME280;68994;47.176;7.534;2023-08-20T09:46:02;96503.38;;;37.76;28.20
79544;BME280;68994;47.176;7.534;2023-08-20T09:48:33;96508.16;;;38.79;24.71
79544;BME280;68994;47.176;7.534;2023-08-20T09:51:04;96505.56;;;39.08;26.94
79544;BME280;68994;47.176;7.534;2023-08-20T09:53:34;96508.78;;;39.56;26.38
79544;BME280;68994;47.176;7.534;2023-08-20T09:56:08;96506.13;;;39.82;27.45
79544;BME280;68994;47.176;7.534;2023-08-20T09:58:37;96502.53;;;40.27;26.51
79544;BME280;68994;47.176;7.534;2023-08-20T10:01:04;96495.25;;;40.46;27.58
79544;BME280;68994;47.176;7.534;2023-08-20T10:03:32;96488.72;;;41.04;26.76
79544;BME280;68994;47.176;7.534;2023-08-20T10:06:00;96494.09;;;41.37;24.55
79544;BME280;68994;47.176;7.534;2023-08-20T10:08:28;96492.25;;;41.56;24.79
79544;BME280;68994;47.176;7.534;2023-08-20T10:10:54;96488.28;;;41.66;23.54
79544;BME280;68994;47.176;7.534;2023-08-20T10:13:21;96493.03;;;41.69;24.17
79544;BME280;68994;47.176;7.534;2023-08-20T10:15:48;96491.25;;;41.98;24.30
79544;BME280;68994;47.176;7.534;2023-08-20T10:18:19;96491.72;;;42.18;23.31
79544;BME280;68994;47.176;7.534;2023-08-20T10:20:49;96493.06;;;42.80;22.40
79544;BME280;68994;47.176;7.534;2023-08-20T10:23:20;96489.00;;;42.28;21.49
79544;BME280;68994;47.176;7.534;2023-08-20T10:25:48;96485.22;;;42.21;22.14
79544;BME280;68994;47.176;7.534;2023-08-20T10:28:20;96487.88;;;42.47;22.40
79544;BME280;68994;47.176;7.534;2023-08-20T10:31:04;96483.06;;;42.48;21.74
79544;BME280;68994;47.176;7.534;2023-08-20T10:33:31;96492.31;;;42.89;21.77
79544;BME280;68994;47.176;7.534;2023-08-20T10:36:07;96484.25;;;43.41;21.50
79544;BME280;68994;47.176;7.534;2023-08-20T10:38:35;96479.78;;;43.03;21.91
79544;BME280;68994;47.176;7.534;2023-08-20T10:41:06;96483.91;;;43.29;20.68
79544;BME280;68994;47.176;7.534;2023-08-20T10:43:34;96475.59;;;43.16;20.18
79544;BME280;68994;47.176;7.534;2023-08-20T10:46:13;96474.78;;;42.97;21.10
79544;BME280;68994;47.176;7.534;2023-08-20T10:48:41;96464.28;;;43.39;20.89
79544;BME280;68994;47.176;7.534;2023-08-20T10:51:11;96467.66;;;43.15;21.66
79544;BME280;68994;47.176;7.534;2023-08-20T10:53:40;96461.50;;;43.48;22.16
79544;BME280;68994;47.176;7.534;2023-08-20T10:56:08;96456.13;;;43.22;21.41
79544;BME280;68994;47.176;7.534;2023-08-20T10:58:35;96461.53;;;43.94;21.97
79544;BME280;68994;47.176;7.534;2023-08-20T11:01:15;96453.56;;;44.30;21.02
79544;BME280;68994;47.176;7.534;2023-08-20T11:03:43;96459.94;;;44.39;18.97
79544;BME280;68994;47.176;7.534;2023-08-20T11:06:12;96455.00;;;44.06;22.68
79544;BME280;68994;47.176;7.534;2023-08-20T11:08:39;96452.19;;;44.06;21.75
79544;BME280;68994;47.176;7.534;2023-08-20T11:11:06;96458.69;;;43.57;21.57
79544;BME280;68994;47.176;7.534;2023-08-20T11:13:34;96455.00;;;43.79;21.69
79544;BME280;68994;47.176;7.534;2023-08-20T11:16:02;96447.72;;;44.61;19.50
79544;BME280;68994;47.176;7.534;2023-08-20T11:18:30;96449.63;;;44.45;21.47
79544;BME280;68994;47.176;7.534;2023-08-20T11:20:59;96443.75;;;44.77;19.80
79544;BME280;68994;47.176;7.534;2023-08-20T11:23:27;96441.44;;;44.66;20.89
79544;BME280;68994;47.176;7.534;2023-08-20T11:25:54;96439.91;;;44.56;19.98
79544;BME280;68994;47.176;7.534;2023-08-20T11:28:21;96446.47;;;44.53;20.22
79544;BME280;68994;47.176;7.534;2023-08-20T11:30:49;96447.00;;;44.14;20.22
79544;BME280;68994;47.176;7.534;2023-08-20T11:33:16;96434.34;;;44.09;20.50
79544;BME280;68994;47.176;7.534;2023-08-20T11:35:43;96446.41;;;43.91;20.86
79544;BME280;68994;47.176;7.534;2023-08-20T11:38:10;96434.59;;;44.49;20.17
79544;BME280;68994;47.176;7.534;2023-08-20T11:40:38;96434.19;;;44.22;20.96
79544;BME280;68994;47.176;7.534;2023-08-20T11:43:05;96431.38;;;44.22;20.93
79544;BME280;68994;47.176;7.534;2023-08-20T11:45:33;96424.47;;;44.33;21.01
79544;BME280;68994;47.176;7.534;2023-08-20T11:47:59;96423.72;;;44.23;22.35
79544;BME280;68994;47.176;7.534;2023-08-20T11:50:27;96420.31;;;43.91;21.34
79544;BME280;68994;47.176;7.534;2023-08-20T11:52:53;96426.72;;;43.91;21.85
79544;BME280;68994;47.176;7.534;2023-08-20T11:55:24;96418.13;;;43.95;22.41
79544;BME280;68994;47.176;7.534;2023-08-20T11:57:52;96409.94;;;44.34;22.09
79544;BME280;68994;47.176;7.534;2023-08-20T12:00:25;96415.63;;;44.06;22.25
79544;BME280;68994;47.176;7.534;2023-08-20T12:02:53;96409.38;;;44.02;23.61
79544;BME280;68994;47.176;7.534;2023-08-20T12:05:20;96419.97;;;44.07;23.67
79544;BME280;68994;47.176;7.534;2023-08-20T12:07:55;96408.16;;;43.76;22.19
79544;BME280;68994;47.176;7.534;2023-08-20T12:10:23;96408.13;;;43.39;21.67
79544;BME280;68994;47.176;7.534;2023-08-20T12:12:51;96410.59;;;43.46;23.07
79544;BME280;68994;47.176;7.534;2023-08-20T12:15:18;96401.28;;;43.77;23.40
79544;BME280;68994;47.176;7.534;2023-08-20T12:17:58;96398.09;;;43.28;21.67
79544;BME280;68994;47.176;7.534;2023-08-20T12:20:27;96398.00;;;42.91;25.74
79544;BME280;68994;47.176;7.534;2023-08-20T12:22:59;96392.75;;;43.03;23.77
79544;BME280;68994;47.176;7.534;2023-08-20T12:25:25;96394.44;;;43.00;24.20
79544;BME280;68994;47.176;7.534;2023-08-20T12:27:53;96393.81;;;42.55;22.45
79544;BME280;68994;47.176;7.534;2023-08-20T12:30:21;96393.59;;;42.18;24.17
79544;BME280;68994;47.176;7.534;2023-08-20T12:32:48;96394.00;;;41.85;25.64
79544;BME280;68994;47.176;7.534;2023-08-20T12:35:14;96384.78;;;41.28;24.10
79544;BME280;68994;47.176;7.534;2023-08-20T12:37:41;96384.28;;;40.94;26.11
79544;BME280;68994;47.176;7.534;2023-08-20T12:40:09;96380.94;;;40.48;26.42
79544;BME280;68994;47.176;7.534;2023-08-20T12:42:37;96380.97;;;40.06;26.87
79544;BME280;68994;47.176;7.534;2023-08-20T12:45:07;96378.75;;;39.84;27.06
79544;BME280;68994;47.176;7.534;2023-08-20T12:47:33;96373.94;;;39.85;27.83
79544;BME280;68994;47.176;7.534;2023-08-20T12:50:00;96375.88;;;39.88;26.62
79544;BME280;68994;47.176;7.534;2023-08-20T12:52:28;96381.50;;;39.72;26.04
79544;BME280;68994;47.176;7.534;2023-08-20T12:54:55;96377.41;;;39.76;26.23
79544;BME280;68994;47.176;7.534;2023-08-20T12:57:22;96374.66;;;39.60;25.27
79544;BME280;68994;47.176;7.534;2023-08-20T12:59:48;96364.88;;;39.22;24.86
79544;BME280;68994;47.176;7.534;2023-08-20T13:02:18;96365.19;;;39.24;27.04